sensor_id;sensor_type;location;lat;lon;timestamp;P1;durP1;ratioP1;P2;durP2;ratioP2
42246;SDS011;27913;42.722;23.268;2024-03-08T00:01:55;2.67;;;1.00;;
42246;SDS011;27913;42.722;23.268;2024-03-08T00:04:21;2.78;;;1.05;;
42246;SDS011;27913;42.722;23.268;2024-03-08T00:06:46;1.20;;;0.55;;
42246;SDS011;27913;42.722;23.268;2024-03-08T00:09:13;2.00;;;0.57;;
42246;SDS011;27913;42.722;23.268;2024-03-08T00:11:39;1.70;;;0.63;;
42246;SDS011;27913;42.722;23.268;2024-03-08T00:14:05;2.17;;;0.85;;
42246;SDS011;27913;42.722;23.268;2024-03-08T00:16:33;2.25;;;1.10;;
42246;SDS011;27913;42.722;23.268;2024-03-08T00:18:59;2.83;;;1.13;;
42246;SDS011;27913;42.722;23.268;2024-03-08T00:21:25;3.10;;;0.88;;
42246;SDS011;27913;42.722;23.268;2024-03-08T00:23:52;3.05;;;1.00;;
42246;SDS011;27913;42.722;23.268;2024-03-08T00:26:19;2.63;;;0.73;;
42246;SDS011;27913;42.722;23.268;2024-03-08T00:28:45;3.22;;;0.73;;
42246;SDS011;27913;42.722;23.268;2024-03-08T00:31:10;2.25;;;0.90;;
42246;SDS011;27913;42.722;23.268;2024-03-08T00:33:36;2.38;;;0.60;;
42246;SDS011;27913;42.722;23.268;2024-03-08T00:36:02;2.13;;;0.93;;
42246;SDS011;27913;42.722;23.268;2024-03-08T00:38:27;2.20;;;0.80;;
42246;SDS011;27913;42.722;23.268;2024-03-08T00:40:53;2.72;;;0.90;;
42246;SDS011;27913;42.722;23.268;2024-03-08T00:43:19;1.70;;;0.75;;
42246;SDS011;27913;42.722;23.268;2024-03-08T00:45:44;2.40;;;1.05;;
42246;SDS011;27913;42.722;23.268;2024-03-08T00:48:13;1.77;;;0.60;;
42246;SDS011;27913;42.722;23.268;2024-03-08T00:50:39;2.05;;;0.95;;
42246;SDS011;27913;42.722;23.268;2024-03-08T00:53:05;2.47;;;0.63;;
42246;SDS011;27913;42.722;23.268;2024-03-08T00:55:31;2.22;;;0.80;;
42246;SDS011;27913;42.722;23.268;2024-03-08T00:57:56;3.95;;;0.80;;
42246;SDS011;27913;42.722;23.268;2024-03-08T01:03:05;3.65;;;1.00;;
42246;SDS011;27913;42.722;23.268;2024-03-08T01:05:32;1.88;;;0.80;;
42246;SDS011;27913;42.722;23.268;2024-03-08T01:07:57;2.15;;;0.90;;
42246;SDS011;27913;42.722;23.268;2024-03-08T01:10:23;2.10;;;0.82;;
42246;SDS011;27913;42.722;23.268;2024-03-08T01:12:48;2.22;;;0.80;;
42246;SDS011;27913;42.722;23.268;2024-03-08T01:15:15;3.15;;;0.90;;
42246;SDS011;27913;42.722;23.268;2024-03-08T01:17:41;1.58;;;0.82;;
42246;SDS011;27913;42.722;23.268;2024-03-08T01:20:07;1.40;;;0.73;;
42246;SDS011;27913;42.722;23.268;2024-03-08T01:22:36;1.30;;;0.60;;
42246;SDS011;27913;42.722;23.268;2024-03-08T01:25:01;1.52;;;0.70;;
42246;SDS011;27913;42.722;23.268;2024-03-08T01:27:29;2.22;;;0.75;;
42246;SDS011;27913;42.722;23.268;2024-03-08T01:30:01;0.98;;;0.52;;
42246;SDS011;27913;42.722;23.268;2024-03-08T01:32:26;2.00;;;0.68;;
42246;SDS011;27913;42.722;23.268;2024-03-08T01:34:52;3.00;;;0.90;;
42246;SDS011;27913;42.722;23.268;2024-03-08T01:37:18;4.38;;;0.80;;
42246;SDS011;27913;42.722;23.268;2024-03-08T01:39:43;5.18;;;1.00;;
42246;SDS011;27913;42.722;23.268;2024-03-08T01:42:09;2.45;;;0.80;;
42246;SDS011;27913;42.722;23.268;2024-03-08T01:44:36;3.80;;;1.10;;
42246;SDS011;27913;42.722;23.268;2024-03-08T01:47:02;4.80;;;1.10;;
42246;SDS011;27913;42.722;23.268;2024-03-08T01:49:28;4.40;;;1.20;;
42246;SDS011;27913;42.722;23.268;2024-03-08T01:51:54;5.15;;;1.50;;
42246;SDS011;27913;42.722;23.268;2024-03-08T01:54:21;2.03;;;0.82;;
42246;SDS011;27913;42.722;23.268;2024-03-08T01:56:48;2.55;;;0.68;;
42246;SDS011;27913;42.722;23.268;2024-03-08T01:59:14;1.52;;;0.60;;
42246;SDS011;27913;42.722;23.268;2024-03-08T02:01:41;2.50;;;0.50;;
42246;SDS011;27913;42.722;23.268;2024-03-08T02:04:06;1.05;;;0.43;;
42246;SDS011;27913;42.722;23.268;2024-03-08T02:06:33;1.25;;;0.52;;
42246;SDS011;27913;42.722;23.268;2024-03-08T02:08:59;1.80;;;0.73;;
42246;SDS011;27913;42.722;23.268;2024-03-08T02:11:25;1.10;;;0.52;;
42246;SDS011;27913;42.722;23.268;2024-03-08T02:13:51;4.22;;;0.70;;
42246;SDS011;27913;42.722;23.268;2024-03-08T02:16:20;1.33;;;0.55;;
42246;SDS011;27913;42.722;23.268;2024-03-08T02:18:47;0.63;;;0.30;;
42246;SDS011;27913;42.722;23.268;2024-03-08T02:21:13;1.02;;;0.43;;
42246;SDS011;27913;42.722;23.268;2024-03-08T02:23:43;2.37;;;0.63;;
42246;SDS011;27913;42.722;23.268;2024-03-08T02:26:08;2.13;;;0.80;;
42246;SDS011;27913;42.722;23.268;2024-03-08T02:28:34;1.55;;;0.70;;
42246;SDS011;27913;42.722;23.268;2024-03-08T02:31:00;1.58;;;0.60;;
42246;SDS011;27913;42.722;23.268;2024-03-08T02:33:26;1.63;;;0.60;;
42246;SDS011;27913;42.722;23.268;2024-03-08T02:35:52;0.40;;;0.30;;
42246;SDS011;27913;42.722;23.268;2024-03-08T02:38:18;1.67;;;0.55;;
42246;SDS011;27913;42.722;23.268;2024-03-08T02:40:46;1.08;;;0.47;;
42246;SDS011;27913;42.722;23.268;2024-03-08T02:43:13;3.00;;;0.70;;
42246;SDS011;27913;42.722;23.268;2024-03-08T02:45:40;1.15;;;0.47;;
42246;SDS011;27913;42.722;23.268;2024-03-08T02:48:07;0.82;;;0.40;;
42246;SDS011;27913;42.722;23.268;2024-03-08T02:50:33;2.35;;;0.75;;
42246;SDS011;27913;42.722;23.268;2024-03-08T02:53:03;1.88;;;0.50;;
42246;SDS011;27913;42.722;23.268;2024-03-08T02:55:29;2.70;;;0.90;;
42246;SDS011;27913;42.722;23.268;2024-03-08T02:57:55;2.75;;;0.93;;
42246;SDS011;27913;42.722;23.268;2024-03-08T03:00:21;0.85;;;0.43;;
42246;SDS011;27913;42.722;23.268;2024-03-08T03:02:51;3.58;;;0.80;;
42246;SDS011;27913;42.722;23.268;2024-03-08T03:05:21;3.05;;;0.80;;
42246;SDS011;27913;42.722;23.268;2024-03-08T03:07:48;3.55;;;0.80;;
42246;SDS011;27913;42.722;23.268;2024-03-08T03:10:14;1.83;;;0.52;;
42246;SDS011;27913;42.722;23.268;2024-03-08T03:12:42;1.38;;;0.60;;
42246;SDS011;27913;42.722;23.268;2024-03-08T03:15:10;2.67;;;0.77;;
42246;SDS011;27913;42.722;23.268;2024-03-08T03:17:36;1.80;;;0.70;;
42246;SDS011;27913;42.722;23.268;2024-03-08T03:20:02;1.88;;;0.80;;
42246;SDS011;27913;42.722;23.268;2024-03-08T03:22:35;3.35;;;0.45;;
42246;SDS011;27913;42.722;23.268;2024-03-08T03:25:02;1.83;;;0.50;;
42246;SDS011;27913;42.722;23.268;2024-03-08T03:27:29;1.50;;;0.60;;
42246;SDS011;27913;42.722;23.268;2024-03-08T03:29:56;1.30;;;0.65;;
42246;SDS011;27913;42.722;23.268;2024-03-08T03:32:22;1.95;;;0.82;;
42246;SDS011;27913;42.722;23.268;2024-03-08T03:34:56;3.22;;;0.77;;
42246;SDS011;27913;42.722;23.268;2024-03-08T03:39:57;0.95;;;0.40;;
42246;SDS011;27913;42.722;23.268;2024-03-08T03:42:23;2.88;;;0.50;;
42246;SDS011;27913;42.722;23.268;2024-03-08T03:44:49;2.30;;;0.73;;
42246;SDS011;27913;42.722;23.268;2024-03-08T03:47:15;2.70;;;0.57;;
42246;SDS011;27913;42.722;23.268;2024-03-08T03:49:41;4.57;;;1.08;;
42246;SDS011;27913;42.722;23.268;2024-03-08T03:52:07;1.83;;;0.50;;
42246;SDS011;27913;42.722;23.268;2024-03-08T03:54:33;3.13;;;0.73;;
42246;SDS011;27913;42.722;23.268;2024-03-08T03:56:59;2.72;;;0.40;;
42246;SDS011;27913;42.722;23.268;2024-03-08T03:59:26;2.53;;;0.80;;
42246;SDS011;27913;42.722;23.268;2024-03-08T04:01:52;1.85;;;0.60;;
42246;SDS011;27913;42.722;23.268;2024-03-08T04:04:19;3.53;;;1.15;;
42246;SDS011;27913;42.722;23.268;2024-03-08T04:06:46;5.25;;;1.20;;
42246;SDS011;27913;42.722;23.268;2024-03-08T04:09:12;2.53;;;0.82;;
42246;SDS011;27913;42.722;23.268;2024-03-08T04:11:38;1.73;;;0.73;;
42246;SDS011;27913;42.722;23.268;2024-03-08T04:14:05;1.52;;;0.60;;
42246;SDS011;27913;42.722;23.268;2024-03-08T04:16:31;0.63;;;0.30;;
42246;SDS011;27913;42.722;23.268;2024-03-08T04:19:00;1.50;;;0.60;;
42246;SDS011;27913;42.722;23.268;2024-03-08T04:21:29;1.40;;;0.50;;
42246;SDS011;27913;42.722;23.268;2024-03-08T04:23:55;1.58;;;0.70;;
42246;SDS011;27913;42.722;23.268;2024-03-08T04:26:21;2.78;;;0.93;;
42246;SDS011;27913;42.722;23.268;2024-03-08T04:28:47;2.72;;;1.00;;
42246;SDS011;27913;42.722;23.268;2024-03-08T04:31:13;2.05;;;0.90;;
42246;SDS011;27913;42.722;23.268;2024-03-08T04:33:39;2.67;;;0.75;;
42246;SDS011;27913;42.722;23.268;2024-03-08T04:36:04;2.90;;;0.77;;
42246;SDS011;27913;42.722;23.268;2024-03-08T04:38:30;0.90;;;0.52;;
42246;SDS011;27913;42.722;23.268;2024-03-08T04:40:59;1.42;;;0.65;;
42246;SDS011;27913;42.722;23.268;2024-03-08T04:43:27;1.55;;;0.60;;
42246;SDS011;27913;42.722;23.268;2024-03-08T04:45:55;1.80;;;0.65;;
42246;SDS011;27913;42.722;23.268;2024-03-08T04:48:20;1.85;;;0.50;;
42246;SDS011;27913;42.722;23.268;2024-03-08T04:50:46;1.25;;;0.60;;
42246;SDS011;27913;42.722;23.268;2024-03-08T04:53:12;3.58;;;0.70;;
42246;SDS011;27913;42.722;23.268;2024-03-08T04:55:37;3.50;;;0.90;;
42246;SDS011;27913;42.722;23.268;2024-03-08T04:58:04;3.60;;;1.08;;
42246;SDS011;27913;42.722;23.268;2024-03-08T05:00:32;4.15;;;2.15;;
42246;SDS011;27913;42.722;23.268;2024-03-08T05:02:58;3.72;;;1.67;;
42246;SDS011;27913;42.722;23.268;2024-03-08T05:05:24;5.32;;;1.40;;
42246;SDS011;27913;42.722;23.268;2024-03-08T05:07:51;2.80;;;1.15;;
42246;SDS011;27913;42.722;23.268;2024-03-08T05:10:16;2.80;;;1.20;;
42246;SDS011;27913;42.722;23.268;2024-03-08T05:12:42;3.58;;;1.42;;
42246;SDS011;27913;42.722;23.268;2024-03-08T05:15:08;4.13;;;1.40;;
42246;SDS011;27913;42.722;23.268;2024-03-08T05:17:33;5.45;;;1.95;;
42246;SDS011;27913;42.722;23.268;2024-03-08T05:19:59;3.55;;;1.48;;
42246;SDS011;27913;42.722;23.268;2024-03-08T05:22:24;3.50;;;0.95;;
42246;SDS011;27913;42.722;23.268;2024-03-08T05:24:51;3.28;;;1.30;;
42246;SDS011;27913;42.722;23.268;2024-03-08T05:27:16;4.53;;;1.63;;
42246;SDS011;27913;42.722;23.268;2024-03-08T05:29:42;4.13;;;1.50;;
42246;SDS011;27913;42.722;23.268;2024-03-08T05:32:08;5.18;;;1.63;;
42246;SDS011;27913;42.722;23.268;2024-03-08T05:34:35;9.27;;;1.83;;
42246;SDS011;27913;42.722;23.268;2024-03-08T05:37:01;3.63;;;1.27;;
42246;SDS011;27913;42.722;23.268;2024-03-08T05:39:27;4.25;;;1.67;;
42246;SDS011;27913;42.722;23.268;2024-03-08T05:41:52;4.35;;;1.58;;
42246;SDS011;27913;42.722;23.268;2024-03-08T05:44:20;3.50;;;1.30;;
42246;SDS011;27913;42.722;23.268;2024-03-08T05:46:46;4.07;;;1.85;;
42246;SDS011;27913;42.722;23.268;2024-03-08T05:49:11;5.30;;;1.83;;
42246;SDS011;27913;42.722;23.268;2024-03-08T05:51:38;4.53;;;1.75;;
42246;SDS011;27913;42.722;23.268;2024-03-08T05:54:05;5.70;;;1.65;;
42246;SDS011;27913;42.722;23.268;2024-03-08T05:56:34;5.18;;;2.13;;
42246;SDS011;27913;42.722;23.268;2024-03-08T05:59:02;6.85;;;2.38;;
42246;SDS011;27913;42.722;23.268;2024-03-08T06:01:28;6.22;;;2.00;;
42246;SDS011;27913;42.722;23.268;2024-03-08T06:03:54;5.75;;;2.25;;
42246;SDS011;27913;42.722;23.268;2024-03-08T06:06:21;9.60;;;2.65;;
42246;SDS011;27913;42.722;23.268;2024-03-08T06:08:48;4.55;;;1.90;;
42246;SDS011;27913;42.722;23.268;2024-03-08T06:11:17;4.78;;;1.80;;
42246;SDS011;27913;42.722;23.268;2024-03-08T06:13:47;6.13;;;2.47;;
42246;SDS011;27913;42.722;23.268;2024-03-08T06:16:12;4.75;;;2.00;;
42246;SDS011;27913;42.722;23.268;2024-03-08T06:18:38;6.93;;;2.50;;
42246;SDS011;27913;42.722;23.268;2024-03-08T06:21:06;9.45;;;2.97;;
42246;SDS011;27913;42.722;23.268;2024-03-08T06:23:34;8.18;;;3.13;;
42246;SDS011;27913;42.722;23.268;2024-03-08T06:26:03;6.90;;;2.40;;
42246;SDS011;27913;42.722;23.268;2024-03-08T06:28:29;6.70;;;2.47;;
42246;SDS011;27913;42.722;23.268;2024-03-08T06:30:55;6.35;;;2.20;;
42246;SDS011;27913;42.722;23.268;2024-03-08T06:33:21;4.72;;;1.90;;
42246;SDS011;27913;42.722;23.268;2024-03-08T06:35:47;8.13;;;2.63;;
42246;SDS011;27913;42.722;23.268;2024-03-08T06:38:12;6.57;;;2.67;;
42246;SDS011;27913;42.722;23.268;2024-03-08T06:40:42;5.72;;;2.42;;
42246;SDS011;27913;42.722;23.268;2024-03-08T06:43:07;7.93;;;3.03;;
42246;SDS011;27913;42.722;23.268;2024-03-08T06:45:33;6.93;;;3.00;;
42246;SDS011;27913;42.722;23.268;2024-03-08T06:48:03;8.18;;;3.40;;
42246;SDS011;27913;42.722;23.268;2024-03-08T06:50:28;15.05;;;6.35;;
42246;SDS011;27913;42.722;23.268;2024-03-08T06:52:54;15.45;;;7.88;;
42246;SDS011;27913;42.722;23.268;2024-03-08T06:55:20;31.77;;;14.85;;
42246;SDS011;27913;42.722;23.268;2024-03-08T06:57:46;34.33;;;13.70;;
42246;SDS011;27913;42.722;23.268;2024-03-08T07:00:11;16.70;;;6.88;;
42246;SDS011;27913;42.722;23.268;2024-03-08T07:02:43;15.88;;;6.72;;
42246;SDS011;27913;42.722;23.268;2024-03-08T07:05:13;30.60;;;10.27;;
42246;SDS011;27913;42.722;23.268;2024-03-08T07:07:39;28.98;;;9.30;;
42246;SDS011;27913;42.722;23.268;2024-03-08T07:10:06;16.60;;;5.07;;
42246;SDS011;27913;42.722;23.268;2024-03-08T07:12:36;12.30;;;3.90;;
42246;SDS011;27913;42.722;23.268;2024-03-08T07:15:04;8.88;;;3.05;;
42246;SDS011;27913;42.722;23.268;2024-03-08T07:17:30;8.88;;;3.60;;
42246;SDS011;27913;42.722;23.268;2024-03-08T07:19:59;16.35;;;4.80;;
42246;SDS011;27913;42.722;23.268;2024-03-08T07:22:32;13.45;;;4.85;;
42246;SDS011;27913;42.722;23.268;2024-03-08T07:24:58;9.77;;;3.47;;
42246;SDS011;27913;42.722;23.268;2024-03-08T07:27:44;7.40;;;3.13;;
42246;SDS011;27913;42.722;23.268;2024-03-08T07:30:11;10.98;;;3.97;;
42246;SDS011;27913;42.722;23.268;2024-03-08T07:32:36;8.70;;;3.25;;
42246;SDS011;27913;42.722;23.268;2024-03-08T07:35:03;7.03;;;2.80;;
42246;SDS011;27913;42.722;23.268;2024-03-08T07:37:29;9.43;;;3.80;;
42246;SDS011;27913;42.722;23.268;2024-03-08T07:39:54;9.20;;;3.08;;
42246;SDS011;27913;42.722;23.268;2024-03-08T07:42:20;7.05;;;2.92;;
42246;SDS011;27913;42.722;23.268;2024-03-08T07:44:46;8.88;;;3.53;;
42246;SDS011;27913;42.722;23.268;2024-03-08T07:47:13;7.95;;;2.65;;
42246;SDS011;27913;42.722;23.268;2024-03-08T07:49:39;7.43;;;2.78;;
42246;SDS011;27913;42.722;23.268;2024-03-08T07:52:04;7.22;;;2.55;;
42246;SDS011;27913;42.722;23.268;2024-03-08T07:54:35;5.43;;;2.10;;
42246;SDS011;27913;42.722;23.268;2024-03-08T07:57:00;4.65;;;2.00;;
42246;SDS011;27913;42.722;23.268;2024-03-08T07:59:28;5.88;;;2.22;;
42246;SDS011;27913;42.722;23.268;2024-03-08T08:01:58;5.60;;;2.33;;
42246;SDS011;27913;42.722;23.268;2024-03-08T08:04:24;7.97;;;2.20;;
42246;SDS011;27913;42.722;23.268;2024-03-08T08:06:50;25.38;;;10.45;;
42246;SDS011;27913;42.722;23.268;2024-03-08T08:09:16;22.98;;;7.45;;
42246;SDS011;27913;42.722;23.268;2024-03-08T08:11:53;8.55;;;2.90;;
42246;SDS011;27913;42.722;23.268;2024-03-08T08:14:22;5.97;;;2.30;;
42246;SDS011;27913;42.722;23.268;2024-03-08T08:16:47;7.07;;;2.22;;
42246;SDS011;27913;42.722;23.268;2024-03-08T08:19:18;11.48;;;3.75;;
42246;SDS011;27913;42.722;23.268;2024-03-08T08:21:44;5.70;;;1.80;;
42246;SDS011;27913;42.722;23.268;2024-03-08T08:24:09;5.63;;;1.80;;
42246;SDS011;27913;42.722;23.268;2024-03-08T08:26:36;6.00;;;2.30;;
42246;SDS011;27913;42.722;23.268;2024-03-08T08:29:01;3.78;;;1.60;;
42246;SDS011;27913;42.722;23.268;2024-03-08T08:31:27;5.60;;;2.15;;
42246;SDS011;27913;42.722;23.268;2024-03-08T08:33:53;7.50;;;2.50;;
42246;SDS011;27913;42.722;23.268;2024-03-08T08:36:23;5.65;;;2.22;;
42246;SDS011;27913;42.722;23.268;2024-03-08T08:38:49;4.70;;;1.73;;
42246;SDS011;27913;42.722;23.268;2024-03-08T08:41:15;4.47;;;1.67;;
42246;SDS011;27913;42.722;23.268;2024-03-08T08:43:45;6.97;;;2.60;;
42246;SDS011;27913;42.722;23.268;2024-03-08T08:46:10;8.27;;;2.20;;
42246;SDS011;27913;42.722;23.268;2024-03-08T08:48:38;4.13;;;1.70;;
42246;SDS011;27913;42.722;23.268;2024-03-08T08:51:06;4.63;;;1.50;;
42246;SDS011;27913;42.722;23.268;2024-03-08T08:53:37;4.95;;;1.83;;
42246;SDS011;27913;42.722;23.268;2024-03-08T08:56:06;4.25;;;1.60;;
42246;SDS011;27913;42.722;23.268;2024-03-08T08:58:33;7.10;;;2.10;;
42246;SDS011;27913;42.722;23.268;2024-03-08T09:00:58;4.78;;;1.85;;
42246;SDS011;27913;42.722;23.268;2024-03-08T09:03:24;3.67;;;1.48;;
42246;SDS011;27913;42.722;23.268;2024-03-08T09:05:52;4.22;;;1.73;;
42246;SDS011;27913;42.722;23.268;2024-03-08T09:08:18;3.92;;;2.05;;
42246;SDS011;27913;42.722;23.268;2024-03-08T09:10:44;6.32;;;1.67;;
42246;SDS011;27913;42.722;23.268;2024-03-08T09:13:09;5.25;;;2.03;;
42246;SDS011;27913;42.722;23.268;2024-03-08T09:15:36;5.57;;;2.13;;
42246;SDS011;27913;42.722;23.268;2024-03-08T09:18:05;4.38;;;1.80;;
42246;SDS011;27913;42.722;23.268;2024-03-08T09:20:31;4.60;;;2.15;;
42246;SDS011;27913;42.722;23.268;2024-03-08T09:22:57;4.55;;;1.77;;
42246;SDS011;27913;42.722;23.268;2024-03-08T09:25:25;4.35;;;1.48;;
42246;SDS011;27913;42.722;23.268;2024-03-08T09:27:51;4.00;;;1.63;;
42246;SDS011;27913;42.722;23.268;2024-03-08T09:30:20;3.78;;;1.20;;
42246;SDS011;27913;42.722;23.268;2024-03-08T09:32:46;2.63;;;0.90;;
42246;SDS011;27913;42.722;23.268;2024-03-08T09:35:12;2.30;;;1.17;;
42246;SDS011;27913;42.722;23.268;2024-03-08T09:37:41;3.78;;;0.90;;
42246;SDS011;27913;42.722;23.268;2024-03-08T09:40:07;2.30;;;0.90;;
42246;SDS011;27913;42.722;23.268;2024-03-08T09:42:40;2.70;;;1.13;;
42246;SDS011;27913;42.722;23.268;2024-03-08T09:45:09;3.45;;;1.42;;
42246;SDS011;27913;42.722;23.268;2024-03-08T09:47:36;1.92;;;0.88;;
42246;SDS011;27913;42.722;23.268;2024-03-08T09:50:07;3.90;;;1.45;;
42246;SDS011;27913;42.722;23.268;2024-03-08T09:52:36;5.43;;;1.65;;
42246;SDS011;27913;42.722;23.268;2024-03-08T09:55:04;4.68;;;1.58;;
42246;SDS011;27913;42.722;23.268;2024-03-08T09:57:32;2.83;;;1.20;;
42246;SDS011;27913;42.722;23.268;2024-03-08T10:00:05;4.28;;;1.60;;
42246;SDS011;27913;42.722;23.268;2024-03-08T10:02:46;2.42;;;0.98;;
42246;SDS011;27913;42.722;23.268;2024-03-08T10:05:13;2.88;;;1.25;;
42246;SDS011;27913;42.722;23.268;2024-03-08T10:07:40;4.85;;;1.73;;
42246;SDS011;27913;42.722;23.268;2024-03-08T10:10:09;4.97;;;1.77;;
42246;SDS011;27913;42.722;23.268;2024-03-08T10:12:37;4.90;;;1.52;;
42246;SDS011;27913;42.722;23.268;2024-03-08T10:15:05;2.70;;;0.93;;
42246;SDS011;27913;42.722;23.268;2024-03-08T10:17:34;2.95;;;1.08;;
42246;SDS011;27913;42.722;23.268;2024-03-08T10:20:00;4.03;;;1.52;;
42246;SDS011;27913;42.722;23.268;2024-03-08T10:22:25;6.80;;;1.85;;
42246;SDS011;27913;42.722;23.268;2024-03-08T10:24:51;6.78;;;1.55;;
42246;SDS011;27913;42.722;23.268;2024-03-08T10:27:17;4.70;;;1.60;;
42246;SDS011;27913;42.722;23.268;2024-03-08T10:29:46;2.67;;;1.10;;
42246;SDS011;27913;42.722;23.268;2024-03-08T10:32:16;6.30;;;1.50;;
42246;SDS011;27913;42.722;23.268;2024-03-08T10:34:41;3.17;;;0.82;;
42246;SDS011;27913;42.722;23.268;2024-03-08T10:37:08;3.90;;;1.48;;
42246;SDS011;27913;42.722;23.268;2024-03-08T10:39:43;2.80;;;1.00;;
42246;SDS011;27913;42.722;23.268;2024-03-08T10:42:17;4.10;;;1.35;;
42246;SDS011;27913;42.722;23.268;2024-03-08T10:45:06;1.33;;;0.73;;
42246;SDS011;27913;42.722;23.268;2024-03-08T10:47:41;2.58;;;0.93;;
42246;SDS011;27913;42.722;23.268;2024-03-08T10:50:19;4.85;;;1.10;;
42246;SDS011;27913;42.722;23.268;2024-03-08T10:52:53;3.60;;;1.08;;
42246;SDS011;27913;42.722;23.268;2024-03-08T10:55:20;2.42;;;0.80;;
42246;SDS011;27913;42.722;23.268;2024-03-08T10:57:51;4.13;;;0.70;;
42246;SDS011;27913;42.722;23.268;2024-03-08T11:00:18;3.13;;;1.08;;
42246;SDS011;27913;42.722;23.268;2024-03-08T11:02:51;3.70;;;1.35;;
42246;SDS011;27913;42.722;23.268;2024-03-08T11:05:32;1.98;;;0.75;;
42246;SDS011;27913;42.722;23.268;2024-03-08T11:21:16;1.95;;;0.68;;
42246;SDS011;27913;42.722;23.268;2024-03-08T11:45:22;3.35;;;1.42;;
42246;SDS011;27913;42.722;23.268;2024-03-08T11:51:50;1.52;;;0.43;;
42246;SDS011;27913;42.722;23.268;2024-03-08T11:54:26;1.45;;;0.52;;
42246;SDS011;27913;42.722;23.268;2024-03-08T11:56:52;2.60;;;0.60;;
42246;SDS011;27913;42.722;23.268;2024-03-08T11:59:38;5.80;;;1.65;;
42246;SDS011;27913;42.722;23.268;2024-03-08T12:02:45;3.63;;;0.80;;
42246;SDS011;27913;42.722;23.268;2024-03-08T12:05:15;2.35;;;0.55;;
42246;SDS011;27913;42.722;23.268;2024-03-08T12:07:41;1.30;;;0.63;;
42246;SDS011;27913;42.722;23.268;2024-03-08T12:10:21;1.75;;;0.60;;
42246;SDS011;27913;42.722;23.268;2024-03-08T12:12:47;1.45;;;0.68;;
42246;SDS011;27913;42.722;23.268;2024-03-08T12:15:16;2.33;;;0.70;;
42246;SDS011;27913;42.722;23.268;2024-03-08T12:17:43;2.05;;;0.80;;
42246;SDS011;27913;42.722;23.268;2024-03-08T12:20:16;0.93;;;0.50;;
42246;SDS011;27913;42.722;23.268;2024-03-08T12:22:44;2.10;;;0.70;;
42246;SDS011;27913;42.722;23.268;2024-03-08T12:25:13;2.15;;;0.70;;
42246;SDS011;27913;42.722;23.268;2024-03-08T12:27:42;1.52;;;0.60;;
42246;SDS011;27913;42.722;23.268;2024-03-08T12:30:16;2.40;;;0.63;;
42246;SDS011;27913;42.722;23.268;2024-03-08T12:32:47;2.25;;;0.65;;
42246;SDS011;27913;42.722;23.268;2024-03-08T12:35:22;1.23;;;0.60;;
42246;SDS011;27913;42.722;23.268;2024-03-08T12:37:50;3.00;;;1.10;;
42246;SDS011;27913;42.722;23.268;2024-03-08T12:40:30;1.63;;;0.57;;
42246;SDS011;27913;42.722;23.268;2024-03-08T12:43:01;1.08;;;0.40;;
42246;SDS011;27913;42.722;23.268;2024-03-08T12:45:27;2.22;;;0.60;;
42246;SDS011;27913;42.722;23.268;2024-03-08T12:47:53;2.78;;;0.65;;
42246;SDS011;27913;42.722;23.268;2024-03-08T12:50:20;1.65;;;0.82;;
42246;SDS011;27913;42.722;23.268;2024-03-08T12:52:49;2.90;;;0.90;;
42246;SDS011;27913;42.722;23.268;2024-03-08T12:55:18;2.00;;;0.82;;
42246;SDS011;27913;42.722;23.268;2024-03-08T12:57:44;1.60;;;0.57;;
42246;SDS011;27913;42.722;23.268;2024-03-08T13:00:12;1.08;;;0.50;;
42246;SDS011;27913;42.722;23.268;2024-03-08T13:02:47;1.48;;;0.77;;
42246;SDS011;27913;42.722;23.268;2024-03-08T13:05:15;1.50;;;0.55;;
42246;SDS011;27913;42.722;23.268;2024-03-08T13:07:41;1.38;;;0.70;;
42246;SDS011;27913;42.722;23.268;2024-03-08T13:10:13;2.70;;;0.77;;
42246;SDS011;27913;42.722;23.268;2024-03-08T13:12:42;2.17;;;0.90;;
42246;SDS011;27913;42.722;23.268;2024-03-08T13:15:09;1.08;;;0.60;;
42246;SDS011;27913;42.722;23.268;2024-03-08T13:17:45;2.00;;;0.77;;
42246;SDS011;27913;42.722;23.268;2024-03-08T13:20:13;2.45;;;0.80;;
42246;SDS011;27913;42.722;23.268;2024-03-08T13:22:41;2.72;;;1.00;;
42246;SDS011;27913;42.722;23.268;2024-03-08T13:25:07;5.68;;;1.92;;
42246;SDS011;27913;42.722;23.268;2024-03-08T13:27:38;5.63;;;1.33;;
42246;SDS011;27913;42.722;23.268;2024-03-08T13:30:11;2.28;;;0.75;;
42246;SDS011;27913;42.722;23.268;2024-03-08T13:32:44;3.92;;;1.40;;
42246;SDS011;27913;42.722;23.268;2024-03-08T13:35:10;3.45;;;1.02;;
42246;SDS011;27913;42.722;23.268;2024-03-08T13:37:39;4.28;;;1.42;;
42246;SDS011;27913;42.722;23.268;2024-03-08T13:40:05;3.20;;;1.08;;
42246;SDS011;27913;42.722;23.268;2024-03-08T13:42:36;3.15;;;1.02;;
42246;SDS011;27913;42.722;23.268;2024-03-08T13:45:03;3.53;;;1.23;;
42246;SDS011;27913;42.722;23.268;2024-03-08T13:47:32;4.18;;;1.10;;
42246;SDS011;27913;42.722;23.268;2024-03-08T13:49:59;3.45;;;0.70;;
42246;SDS011;27913;42.722;23.268;2024-03-08T13:52:25;1.77;;;0.80;;
42246;SDS011;27913;42.722;23.268;2024-03-08T13:54:54;2.33;;;0.95;;
42246;SDS011;27913;42.722;23.268;2024-03-08T13:57:20;2.35;;;0.90;;
42246;SDS011;27913;42.722;23.268;2024-03-08T13:59:47;1.40;;;0.60;;
42246;SDS011;27913;42.722;23.268;2024-03-08T14:02:14;0.85;;;0.43;;
42246;SDS011;27913;42.722;23.268;2024-03-08T14:04:40;1.85;;;0.43;;
42246;SDS011;27913;42.722;23.268;2024-03-08T14:07:07;1.38;;;0.60;;
42246;SDS011;27913;42.722;23.268;2024-03-08T14:09:34;3.72;;;0.70;;
42246;SDS011;27913;42.722;23.268;2024-03-08T14:12:05;4.38;;;1.05;;
42246;SDS011;27913;42.722;23.268;2024-03-08T14:14:32;3.92;;;1.20;;
42246;SDS011;27913;42.722;23.268;2024-03-08T14:17:00;5.70;;;1.40;;
42246;SDS011;27913;42.722;23.268;2024-03-08T14:19:29;5.20;;;1.55;;
42246;SDS011;27913;42.722;23.268;2024-03-08T14:21:59;1.80;;;0.73;;
42246;SDS011;27913;42.722;23.268;2024-03-08T14:24:24;1.77;;;0.88;;
42246;SDS011;27913;42.722;23.268;2024-03-08T14:26:50;3.60;;;1.20;;
42246;SDS011;27913;42.722;23.268;2024-03-08T14:29:17;3.47;;;1.20;;
42246;SDS011;27913;42.722;23.268;2024-03-08T14:31:43;2.53;;;1.17;;
42246;SDS011;27913;42.722;23.268;2024-03-08T14:34:10;2.00;;;0.88;;
42246;SDS011;27913;42.722;23.268;2024-03-08T14:36:35;4.85;;;1.40;;
42246;SDS011;27913;42.722;23.268;2024-03-08T14:39:01;4.80;;;1.77;;
42246;SDS011;27913;42.722;23.268;2024-03-08T14:41:27;2.22;;;0.82;;
42246;SDS011;27913;42.722;23.268;2024-03-08T14:43:53;3.28;;;1.30;;
42246;SDS011;27913;42.722;23.268;2024-03-08T14:46:18;9.50;;;1.88;;
42246;SDS011;27913;42.722;23.268;2024-03-08T14:48:48;4.85;;;1.30;;
42246;SDS011;27913;42.722;23.268;2024-03-08T14:51:17;5.05;;;1.08;;
42246;SDS011;27913;42.722;23.268;2024-03-08T14:53:46;6.75;;;2.08;;
42246;SDS011;27913;42.722;23.268;2024-03-08T14:56:12;1.75;;;0.68;;
42246;SDS011;27913;42.722;23.268;2024-03-08T14:58:57;1.92;;;0.77;;
42246;SDS011;27913;42.722;23.268;2024-03-08T15:01:24;3.65;;;1.30;;
42246;SDS011;27913;42.722;23.268;2024-03-08T15:03:54;5.93;;;1.70;;
42246;SDS011;27913;42.722;23.268;2024-03-08T15:06:20;5.75;;;2.00;;
42246;SDS011;27913;42.722;23.268;2024-03-08T15:08:46;4.10;;;1.23;;
42246;SDS011;27913;42.722;23.268;2024-03-08T15:11:12;2.67;;;1.15;;
42246;SDS011;27913;42.722;23.268;2024-03-08T15:13:46;3.72;;;1.50;;
42246;SDS011;27913;42.722;23.268;2024-03-08T15:16:16;7.07;;;1.80;;
42246;SDS011;27913;42.722;23.268;2024-03-08T15:18:43;4.97;;;1.40;;
42246;SDS011;27913;42.722;23.268;2024-03-08T15:21:12;6.70;;;3.03;;